Time;durP1;ratioP1;P1;durP2;ratioP2;P2;SDS_P1;SDS_P2;PMS_P1;PMS_P2;Temp;Humidity;BMP_temperature;BMP_pressure;BME280_temperature;BME280_humidity;BME280_pressure;Samples;Min_cycle;Max_cycle;Signal;HPM_P1;HPM_P2
2022/01/15 00:01:39;;;;;;;20.95;5.65;;;;;;;1.39;88.66;102971.94;5040059;28;20032;-46
2022/01/15 00:04:05;;;;;;;19.73;3.40;;;;;;;1.37;89.08;102973.88;5037525;28;20025;-47
2022/01/15 00:06:30;;;;;;;27.35;5.07;;;;;;;1.24;89.88;102974.09;5042741;28;20047;-46
2022/01/15 00:08:56;;;;;;;28.17;4.35;;;;;;;1.27;90.42;102967.75;5040292;28;20025;-46
2022/01/15 00:11:21;;;;;;;14.50;3.65;;;;;;;1.30;90.03;102970.97;5042180;28;20033;-46
2022/01/15 00:13:55;;;;;;;14.60;3.20;;;;;;;1.28;90.37;102970.25;5041077;28;20043;-46
2022/01/15 00:16:34;;;;;;;19.50;4.53;;;;;;;1.30;89.84;102968.31;5042654;28;20449;-46
2022/01/15 00:19:10;;;;;;;18.23;3.58;;;;;;;1.24;90.95;102968.81;5044174;28;20372;-47
2022/01/15 00:21:36;;;;;;;20.27;4.57;;;;;;;1.28;90.41;102970.25;5040967;28;20514;-46
2022/01/15 00:24:02;;;;;;;19.52;3.10;;;;;;;1.34;89.85;102953.88;5043094;28;20033;-46
2022/01/15 00:26:28;;;;;;;18.25;3.30;;;;;;;1.22;90.60;102960.22;5036701;28;20421;-46
2022/01/15 00:28:54;;;;;;;21.05;3.88;;;;;;;1.17;91.24;102957.97;5044178;28;20025;-47
2022/01/15 00:31:19;;;;;;;21.33;3.78;;;;;;;1.29;90.23;102949.97;5041496;28;20384;-46
2022/01/15 00:33:45;;;;;;;20.33;3.42;;;;;;;1.40;89.16;102953.31;5043668;28;20060;-46
2022/01/15 00:36:10;;;;;;;22.13;4.65;;;;;;;1.46;88.53;102950.16;5042139;28;20024;-48
2022/01/15 00:38:36;;;;;;;19.50;3.95;;;;;;;1.49;88.37;102957.81;5044180;28;20025;-46
2022/01/15 00:41:02;;;;;;;15.55;2.97;;;;;;;1.46;88.23;102947.53;5042133;28;20041;-46
2022/01/15 00:43:28;;;;;;;20.45;3.17;;;;;;;1.50;87.79;102943.63;5031445;28;20029;-48
2022/01/15 00:45:55;;;;;;;21.20;3.65;;;;;;;1.54;87.56;102943.38;5056793;28;20067;-46
2022/01/15 00:48:21;;;;;;;34.25;4.70;;;;;;;1.31;89.16;102948.03;5041057;28;20025;-46
2022/01/15 00:50:47;;;;;;;17.65;3.30;;;;;;;1.26;89.43;102944.94;5039515;28;20040;-47
2022/01/15 00:53:12;;;;;;;18.92;3.20;;;;;;;1.20;89.40;102946.31;5039569;28;20060;-46
2022/01/15 00:55:37;;;;;;;19.77;4.25;;;;;;;1.17;89.88;102939.47;5037659;28;20022;-46
2022/01/15 00:58:03;;;;;;;26.83;3.88;;;;;;;1.15;90.08;102956.44;5037841;28;20033;-47
2022/01/15 01:00:29;;;;;;;20.30;3.92;;;;;;;1.06;90.79;102955.41;5038032;28;20486;-46
2022/01/15 01:02:55;;;;;;;20.80;3.78;;;;;;;1.06;90.62;102963.31;5035542;28;20047;-46
2022/01/15 01:05:21;;;;;;;19.77;3.40;;;;;;;1.04;91.02;102967.91;5035105;28;20190;-46
2022/01/15 01:07:47;;;;;;;31.92;7.32;;;;;;;1.10;90.37;102963.91;5038345;28;20410;-46
2022/01/15 01:23:19;;;;;;;12.70;3.42;;;;;;;1.32;88.14;102962.91;5039200;28;20120;-46
2022/01/15 01:25:49;;;;;;;17.55;3.55;;;;;;;1.37;87.92;102958.03;5037796;28;20383;-46
2022/01/15 01:28:24;;;;;;;24.60;4.03;;;;;;;1.29;87.63;102960.53;5038212;28;20040;-46
2022/01/15 01:31:14;;;;;;;24.85;3.67;;;;;;;1.13;88.06;102964.50;5039895;28;20048;-46
2022/01/15 01:33:44;;;;;;;19.75;3.35;;;;;;;1.15;88.06;102969.63;5036071;28;20479;-46
2022/01/15 01:38:52;;;;;;;15.43;3.80;;;;;;;1.16;87.96;102977.41;5040528;28;20086;-47
2022/01/15 01:41:21;;;;;;;16.30;3.00;;;;;;;1.17;87.70;102973.81;5037410;28;20062;-46
2022/01/15 01:46:30;;;;;;;21.42;2.70;;;;;;;1.07;87.80;102972.06;5034363;28;20035;-46
2022/01/15 01:48:57;;;;;;;18.92;3.53;;;;;;;1.05;87.88;102968.72;5038091;28;20032;-46
2022/01/15 01:51:33;;;;;;;15.93;3.47;;;;;;;0.95;88.02;102967.88;5037245;28;20033;-46
2022/01/15 01:54:01;;;;;;;15.30;2.80;;;;;;;0.94;88.20;102966.19;5038008;28;20046;-48
2022/01/15 01:56:27;;;;;;;24.50;3.47;;;;;;;0.90;87.86;102969.09;5039723;28;20031;-46
2022/01/15 01:58:52;;;;;;;16.50;3.55;;;;;;;0.84;88.36;102968.75;5044004;28;20032;-46
2022/01/15 02:01:18;;;;;;;21.15;4.90;;;;;;;0.80;88.82;102965.56;5038650;28;20025;-46
2022/01/15 02:03:43;;;;;;;20.42;2.58;;;;;;;0.77;88.97;102965.81;5041261;28;20024;-47
2022/01/15 02:06:09;;;;;;;10.55;2.60;;;;;;;0.67;90.07;102959.63;5035646;28;20025;-46
2022/01/15 02:08:36;;;;;;;18.13;3.22;;;;;;;0.53;90.98;102955.50;5041081;28;20079;-46
2022/01/15 02:11:04;;;;;;;11.73;2.88;;;;;;;0.51;90.78;102948.69;5039480;28;20146;-47
2022/01/15 02:13:30;;;;;;;18.73;3.25;;;;;;;0.49;90.81;102940.06;5040690;28;20436;-46
2022/01/15 02:15:57;;;;;;;12.70;4.55;;;;;;;0.66;90.09;102943.94;5035922;28;20032;-47
2022/01/15 02:18:24;;;;;;;16.02;2.85;;;;;;;0.60;90.36;102950.56;5038679;28;20041;-46
2022/01/15 02:23:35;;;;;;;14.68;4.50;;;;;;;0.52;90.55;102940.66;5041402;28;20069;-46
2022/01/15 02:26:05;;;;;;;17.83;3.42;;;;;;;0.53;90.59;102944.94;5039156;28;20112;-47
2022/01/15 02:28:34;;;;;;;23.50;3.88;;;;;;;0.60;90.08;102943.50;5036184;28;20064;-46
2022/01/15 02:31:03;;;;;;;16.50;3.15;;;;;;;0.72;89.40;102939.00;5035685;28;20380;-46
2022/01/15 02:33:29;;;;;;;12.55;2.80;;;;;;;0.85;89.25;102941.41;5038359;28;20025;-46
2022/01/15 02:35:55;;;;;;;14.30;2.70;;;;;;;0.95;88.22;102941.47;5039558;28;20063;-47
2022/01/15 02:38:21;;;;;;;17.85;4.15;;;;;;;1.00;87.67;102940.09;5038602;28;20303;-47
2022/01/15 02:40:47;;;;;;;12.80;2.90;;;;;;;1.07;87.15;102937.75;5041453;28;20060;-47
2022/01/15 02:43:17;;;;;;;13.85;3.40;;;;;;;1.12;86.38;102932.94;5042364;28;20037;-47
2022/01/15 02:45:46;;;;;;;17.30;3.30;;;;;;;1.13;85.72;102931.97;5037894;28;20044;-46
2022/01/15 02:48:12;;;;;;;18.75;3.40;;;;;;;1.12;85.57;102927.66;5037881;28;20033;-46
2022/01/15 02:50:39;;;;;;;15.93;2.60;;;;;;;1.09;85.49;102933.22;5039411;28;20029;-46
2022/01/15 02:53:06;;;;;;;15.57;3.50;;;;;;;1.05;85.16;102937.06;5038316;28;20043;-47
2022/01/15 02:55:32;;;;;;;18.80;3.13;;;;;;;0.92;85.00;102937.28;5040897;28;20025;-46
2022/01/15 02:57:57;;;;;;;22.83;4.05;;;;;;;0.75;84.86;102936.09;5042065;28;20474;-46
2022/01/15 03:00:24;;;;;;;21.98;3.65;;;;;;;0.51;84.87;102936.34;5042657;28;20040;-46
2022/01/15 03:02:50;;;;;;;14.25;3.00;;;;;;;0.52;85.76;102934.53;5044119;28;20024;-46
2022/01/15 03:05:16;;;;;;;14.98;3.30;;;;;;;0.30;85.58;102940.75;5036637;28;20282;-47
2022/01/15 03:07:41;;;;;;;12.23;3.60;;;;;;;0.21;85.93;102936.25;5045328;28;20054;-45
2022/01/15 03:10:08;;;;;;;17.23;3.05;;;;;;;-0.06;86.53;102940.19;5042235;28;20427;-46
2022/01/15 03:12:34;;;;;;;10.43;2.67;;;;;;;-0.09;86.79;102936.97;5044418;28;20033;-47
2022/01/15 03:15:02;;;;;;;15.23;3.05;;;;;;;-0.02;87.69;102935.50;5043175;28;20060;-47
2022/01/15 03:17:28;;;;;;;19.00;2.70;;;;;;;0.08;87.81;102925.88;5042859;28;20030;-47
2022/01/15 03:19:53;;;;;;;16.67;2.95;;;;;;;0.22;87.72;102932.66;5041487;28;20033;-46
2022/01/15 03:22:20;;;;;;;10.85;2.47;;;;;;;0.38;87.33;102921.69;5039485;28;20033;-46
2022/01/15 03:24:45;;;;;;;14.77;3.20;;;;;;;0.47;86.70;102927.00;5044274;28;20033;-47
2022/01/15 03:27:11;;;;;;;22.55;3.33;;;;;;;0.53;86.41;102921.22;5041587;28;20135;-46
2022/01/15 03:29:36;;;;;;;14.70;3.00;;;;;;;0.59;85.79;102925.16;5044604;28;20029;-47
2022/01/15 03:32:03;;;;;;;16.67;3.58;;;;;;;0.59;85.48;102930.44;5042744;28;20429;-48
2022/01/15 03:34:28;;;;;;;19.70;3.50;;;;;;;0.63;85.16;102929.19;5042690;28;20079;-48
2022/01/15 03:36:54;;;;;;;13.50;3.45;;;;;;;0.63;85.12;102931.84;5044999;28;20032;-46
2022/01/15 03:39:19;;;;;;;15.95;2.83;;;;;;;0.64;84.62;102924.75;5035991;28;20068;-46
2022/01/15 03:41:45;;;;;;;13.05;2.97;;;;;;;0.61;84.29;102923.22;5044110;28;20025;-46
2022/01/15 03:44:11;;;;;;;25.45;4.70;;;;;;;0.63;84.45;102913.38;5040713;28;20095;-46
2022/01/15 03:46:36;;;;;;;16.10;3.60;;;;;;;0.60;nan;102911.00;5038368;28;20105;-47
2022/01/15 03:49:02;;;;;;;12.93;2.90;;;;;;;0.59;84.28;102902.25;5039304;28;20426;-46
2022/01/15 03:51:27;;;;;;;11.10;2.45;;;;;;;0.59;84.12;102896.13;5045154;28;20437;-46
2022/01/15 03:53:52;;;;;;;15.30;3.38;;;;;;;0.59;84.01;102894.34;5044378;28;20028;-46
2022/01/15 03:56:18;;;;;;;14.10;2.97;;;;;;;0.62;83.77;102895.03;5041037;28;21281;-46
2022/01/15 03:58:44;;;;;;;15.52;3.97;;;;;;;0.61;83.58;102894.19;5038374;28;20049;-46
2022/01/15 04:01:09;;;;;;;19.30;2.90;;;;;;;0.62;83.21;102900.31;5039539;28;20044;-46
2022/01/15 04:03:35;;;;;;;17.70;3.22;;;;;;;0.59;83.16;102902.25;5054356;28;20673;-45
2022/01/15 04:06:00;;;;;;;12.00;3.00;;;;;;;0.60;82.80;102911.00;5040823;28;20068;-46
2022/01/15 04:08:25;;;;;;;18.30;2.83;;;;;;;0.55;82.82;102905.28;5034793;28;20032;-48
2022/01/15 04:10:51;;;;;;;12.38;2.45;;;;;;;0.52;82.59;102910.78;5042543;28;20028;-46
2022/01/15 04:13:16;;;;;;;17.95;2.97;;;;;;;0.48;82.68;102889.13;5040181;28;20168;-47
2022/01/15 04:15:43;;;;;;;15.82;2.58;;;;;;;0.47;82.73;102894.53;5043536;28;20048;-47
2022/01/15 04:18:09;;;;;;;16.42;4.20;;;;;;;0.45;82.69;102886.75;5038152;28;20142;-46
2022/01/15 04:20:34;;;;;;;12.00;2.72;;;;;;;0.45;82.63;102884.09;5043195;28;20025;-45
2022/01/15 04:23:00;;;;;;;18.40;3.35;;;;;;;0.42;82.50;102881.75;5045034;28;21270;-45
2022/01/15 04:25:25;;;;;;;14.50;2.70;;;;;;;0.41;82.45;102873.97;5041505;28;20128;-45
2022/01/15 04:27:51;;;;;;;15.88;2.60;;;;;;;0.40;82.64;102877.56;5038286;28;20025;-46
2022/01/15 04:30:18;;;;;;;13.77;2.88;;;;;;;0.38;82.41;102874.22;5040419;28;20075;-47
2022/01/15 04:32:44;;;;;;;22.65;3.85;;;;;;;0.39;82.18;102874.09;5047007;28;20159;-48
2022/01/15 04:35:10;;;;;;;19.08;3.13;;;;;;;0.39;82.06;102881.16;5039758;28;20512;-46
2022/01/15 04:37:43;;;;;;;11.00;4.18;;;;;;;0.35;82.00;102885.84;5040611;28;20021;-46
2022/01/15 04:40:10;;;;;;;13.35;3.00;;;;;;;0.31;81.95;102892.34;5040575;28;20112;-46
2022/01/15 04:42:36;;;;;;;13.70;3.63;;;;;;;0.33;81.90;102892.22;5038533;28;20039;-45
2022/01/15 04:45:03;;;;;;;19.40;3.15;;;;;;;-0.13;82.00;102893.38;5041015;28;20029;-45
2022/01/15 04:47:29;;;;;;;9.18;3.08;;;;;;;-0.16;82.02;102886.56;5042015;28;20037;-47
2022/01/15 04:49:55;;;;;;;13.75;3.33;;;;;;;-0.15;82.48;102887.41;5042131;28;20522;-46
2022/01/15 04:52:24;;;;;;;16.10;3.30;;;;;;;-0.30;82.58;102889.50;5052453;28;20124;-46
2022/01/15 04:54:50;;;;;;;16.02;3.45;;;;;;;-0.35;83.08;102891.66;5041522;28;20028;-46
2022/01/15 04:57:16;;;;;;;14.02;2.63;;;;;;;-0.42;83.55;102887.84;5034962;28;20541;-45
2022/01/15 04:59:42;;;;;;;21.27;4.25;;;;;;;-0.36;83.53;102888.19;5042946;28;20029;-46
2022/01/15 05:02:07;;;;;;;17.63;3.63;;;;;;;-0.27;83.73;102883.13;5039145;28;20021;-46
2022/01/15 05:04:33;;;;;;;18.23;3.25;;;;;;;-0.21;83.72;102887.91;5041844;28;20047;-46
2022/01/15 05:06:58;;;;;;;15.68;4.18;;;;;;;-0.17;83.27;102876.16;5035878;28;20079;-47
2022/01/15 05:09:24;;;;;;;14.13;2.50;;;;;;;-0.10;83.01;102879.97;5039175;28;20777;-46
2022/01/15 05:12:01;;;;;;;17.20;3.30;;;;;;;-0.14;82.73;102889.09;5037141;28;20025;-46
2022/01/15 05:14:27;;;;;;;11.10;3.80;;;;;;;-0.21;83.05;102890.53;5041305;28;20048;-45
2022/01/15 05:16:52;;;;;;;25.30;5.25;;;;;;;-0.20;83.20;102893.03;5038119;28;20033;-45
2022/01/15 05:19:18;;;;;;;16.73;3.50;;;;;;;-0.18;83.39;102890.28;5038831;28;20037;-46
2022/01/15 05:21:43;;;;;;;15.27;3.15;;;;;;;-0.09;83.32;102879.00;5037065;28;20363;-45
2022/01/15 05:24:09;;;;;;;13.57;3.03;;;;;;;-0.01;83.23;102890.56;5039753;28;20025;-46
2022/01/15 05:26:34;;;;;;;16.45;3.28;;;;;;;-0.05;83.45;102885.69;5036639;28;20108;-47
2022/01/15 05:29:00;;;;;;;21.60;4.30;;;;;;;-0.08;83.13;102884.13;5036077;28;20025;-46
2022/01/15 05:31:26;;;;;;;13.07;3.10;;;;;;;-0.01;83.31;102889.72;5041244;28;20073;-45
2022/01/15 05:33:52;;;;;;;17.15;3.92;;;;;;;-0.01;83.49;102885.28;5039122;28;20411;-46
2022/01/15 05:36:17;;;;;;;17.40;4.07;;;;;;;-0.07;84.03;102892.88;5033138;28;20022;-47
2022/01/15 05:38:43;;;;;;;21.83;3.40;;;;;;;-0.03;83.56;102902.19;5036887;28;20064;-45
2022/01/15 05:41:09;;;;;;;22.92;3.50;;;;;;;-0.05;84.27;102909.41;5032648;28;20033;-46
2022/01/15 05:43:34;;;;;;;11.05;3.30;;;;;;;-0.01;84.43;102906.38;5037577;28;20270;-46
2022/01/15 05:46:00;;;;;;;15.93;4.13;;;;;;;-0.21;86.98;102914.25;5038445;28;20218;-46
2022/01/15 05:48:25;;;;;;;18.63;3.78;;;;;;;-0.27;87.55;102907.69;5038555;28;20032;-46
2022/01/15 05:50:51;;;;;;;17.50;5.30;;;;;;;-0.29;88.86;102911.41;5036761;28;20394;-46
2022/01/15 05:53:16;;;;;;;31.48;6.15;;;;;;;-0.33;90.25;102906.38;5036806;28;20108;-46
2022/01/15 05:55:42;;;;;;;28.48;7.20;;;;;;;-0.43;91.80;102900.16;5039476;28;20125;-45
2022/01/15 05:58:07;;;;;;;41.45;8.27;;;;;;;-0.46;92.70;102910.97;5036335;28;20032;-46
2022/01/15 06:00:34;;;;;;;21.98;6.47;;;;;;;-0.45;93.00;102915.25;5040622;28;20033;-47
2022/01/15 06:03:00;;;;;;;26.90;7.95;;;;;;;-0.28;90.94;102918.34;5038017;28;20487;-47
2022/01/15 06:05:25;;;;;;;30.05;9.82;;;;;;;-0.15;89.88;102919.03;5035954;28;20048;-46
2022/01/15 06:07:51;;;;;;;32.83;9.07;;;;;;;-0.11;89.94;102917.81;5032538;28;20025;-46
2022/01/15 06:10:16;;;;;;;25.65;9.43;;;;;;;0.00;88.61;102920.41;5036441;28;20274;-45
2022/01/15 06:12:44;;;;;;;36.35;10.43;;;;;;;0.08;88.28;102919.78;5039959;28;20079;-46
2022/01/15 06:15:14;;;;;;;34.25;11.02;;;;;;;0.06;89.01;102922.53;5033546;28;20666;-47
2022/01/15 06:17:41;;;;;;;33.72;10.75;;;;;;;0.11;88.50;102930.91;5039076;28;20237;-46
2022/01/15 06:20:08;;;;;;;36.70;11.50;;;;;;;-0.06;89.98;102934.91;5031699;28;20029;-46
2022/01/15 06:22:34;;;;;;;38.05;10.35;;;;;;;-0.19;92.14;102939.50;5039805;28;20078;-47
2022/01/15 06:25:02;;;;;;;33.33;9.93;;;;;;;-0.20;91.99;102939.63;5035817;28;20457;-48
2022/01/15 06:27:28;;;;;;;43.83;11.65;;;;;;;-0.09;91.57;102943.06;5037721;28;20513;-46
2022/01/15 06:29:56;;;;;;;39.97;10.60;;;;;;;-0.07;91.34;102943.78;5037262;28;20128;-46
2022/01/15 06:32:22;;;;;;;34.92;10.38;;;;;;;-0.16;92.81;102946.34;5037248;28;20025;-46
2022/01/15 06:34:47;;;;;;;27.77;8.98;;;;;;;-0.27;94.50;102951.63;5035260;28;20438;-47
2022/01/15 06:37:13;;;;;;;36.15;9.40;;;;;;;-0.33;95.58;102959.06;5038636;28;20172;-47
2022/01/15 06:39:38;;;;;;;32.03;8.85;;;;;;;-0.26;95.29;102963.84;5036159;28;20025;-46
2022/01/15 06:42:04;;;;;;;39.55;9.88;;;;;;;-0.23;95.44;102964.41;5041811;28;20028;-47
2022/01/15 06:44:30;;;;;;;31.02;10.20;;;;;;;-0.32;97.02;102960.75;5040179;28;20390;-47
2022/01/15 06:46:55;;;;;;;27.75;8.00;;;;;;;-0.37;98.18;102962.88;5037853;28;20101;-46
2022/01/15 06:49:21;;;;;;;26.83;8.35;;;;;;;-0.31;98.42;102965.06;5038533;28;20033;-46
2022/01/15 06:51:47;;;;;;;22.58;7.63;;;;;;;-0.19;97.10;102960.56;5038824;28;20025;-46
2022/01/15 06:54:13;;;;;;;22.88;7.10;;;;;;;-0.10;96.54;102969.56;5040000;28;20546;-46
2022/01/15 06:56:38;;;;;;;25.10;8.00;;;;;;;0.13;93.70;102968.50;5041826;28;20021;-48
2022/01/15 06:59:04;;;;;;;25.17;6.50;;;;;;;0.23;92.81;102972.09;5041722;28;20025;-47
2022/01/15 07:01:30;;;;;;;20.58;6.95;;;;;;;0.25;92.79;102970.16;5044099;28;20044;-47
2022/01/15 07:03:55;;;;;;;25.65;7.07;;;;;;;0.22;93.02;102975.69;5043255;28;20578;-46
2022/01/15 07:06:20;;;;;;;22.23;7.68;;;;;;;0.14;93.67;102972.81;5039968;28;20028;-46
2022/01/15 07:08:46;;;;;;;18.42;7.03;;;;;;;0.21;93.02;102981.91;5042906;28;20368;-46
2022/01/15 07:11:11;;;;;;;27.17;8.23;;;;;;;0.30;91.92;102993.50;5040387;28;20041;-46
2022/01/15 07:13:37;;;;;;;24.98;7.13;;;;;;;0.35;91.73;102986.03;5041909;28;20680;-46
2022/01/15 07:16:03;;;;;;;27.17;8.63;;;;;;;0.40;90.86;102988.31;5039096;28;20131;-47
2022/01/15 07:18:28;;;;;;;25.20;8.68;;;;;;;0.36;91.51;102986.88;5040327;28;20029;-46
2022/01/15 07:20:54;;;;;;;23.35;8.77;;;;;;;0.38;91.05;102991.09;5041953;28;20511;-46
2022/01/15 07:23:20;;;;;;;30.77;9.70;;;;;;;0.31;92.44;102982.00;5040623;28;20040;-46
2022/01/15 07:25:45;;;;;;;26.77;7.38;;;;;;;0.27;91.85;102985.84;5042650;28;20035;-46
2022/01/15 07:28:11;;;;;;;26.38;8.05;;;;;;;0.30;91.79;102986.44;5041030;28;20482;-46
2022/01/15 07:30:37;;;;;;;19.35;7.65;;;;;;;0.33;92.25;102995.03;5040339;28;20111;-45
2022/01/15 07:33:03;;;;;;;27.67;8.30;;;;;;;0.38;91.74;102991.09;5042413;28;20053;-46
2022/01/15 07:35:28;;;;;;;25.77;7.43;;;;;;;0.32;92.77;103001.28;5039961;28;20037;-46
2022/01/15 07:37:55;;;;;;;26.48;6.88;;;;;;;0.42;91.64;102999.56;5043303;28;20125;-46
2022/01/15 07:40:21;;;;;;;24.50;7.07;;;;;;;0.48;91.32;102996.44;5035923;28;20029;-46
2022/01/15 07:42:46;;;;;;;28.52;7.47;;;;;;;0.24;92.96;102994.84;5043370;28;20028;-46
2022/01/15 07:45:16;;;;;;;30.67;7.97;;;;;;;0.18;93.75;102991.84;5040098;28;20703;-46
2022/01/15 07:47:42;;;;;;;25.75;7.38;;;;;;;0.21;94.70;102999.53;5041793;28;20035;-46
2022/01/15 07:50:17;;;;;;;22.67;8.60;;;;;;;0.29;94.01;102997.94;5031186;28;20487;-46
2022/01/15 07:52:43;;;;;;;28.63;8.98;;;;;;;0.41;93.28;102995.28;5042174;28;20029;-47
2022/01/15 07:55:09;;;;;;;27.23;7.60;;;;;;;0.32;93.86;103009.19;5039621;28;20037;-46
2022/01/15 07:57:35;;;;;;;30.42;8.07;;;;;;;0.11;95.56;103003.88;5039317;28;20459;-46
2022/01/15 08:00:00;;;;;;;27.55;8.07;;;;;;;0.14;96.10;103003.63;5042163;28;20029;-46
2022/01/15 08:02:26;;;;;;;30.05;8.18;;;;;;;0.16;96.01;102994.63;5037339;28;20159;-46
2022/01/15 08:04:51;;;;;;;27.85;9.73;;;;;;;0.32;95.14;102999.47;5041192;28;20500;-46
2022/01/15 08:07:18;;;;;;;24.52;8.40;;;;;;;0.30;94.98;103012.78;5040264;28;20029;-46
2022/01/15 08:09:44;;;;;;;25.17;7.95;;;;;;;0.30;95.02;103010.16;5042449;28;20037;-47
2022/01/15 08:12:11;;;;;;;23.05;7.32;;;;;;;0.32;95.08;103010.03;5040281;28;20176;-47
2022/01/15 08:14:37;;;;;;;23.40;7.32;;;;;;;0.35;94.80;103014.22;5043582;28;20044;-46
2022/01/15 08:17:02;;;;;;;24.55;8.18;;;;;;;0.40;94.50;103014.69;5036057;28;20464;-47
2022/01/15 08:19:28;;;;;;;23.58;6.95;;;;;;;0.41;94.49;103016.38;5036853;28;20506;-46
2022/01/15 08:21:53;;;;;;;27.15;7.95;;;;;;;0.44;94.26;103021.38;5037519;28;20061;-47
2022/01/15 08:24:19;;;;;;;19.45;5.90;;;;;;;0.42;94.68;103012.75;5040821;28;20045;-46
2022/01/15 08:26:45;;;;;;;25.75;8.20;;;;;;;0.22;95.84;103009.97;5037731;28;20083;-46
2022/01/15 08:29:10;;;;;;;25.35;7.40;;;;;;;0.23;96.37;103009.00;5034943;28;20144;-46
2022/01/15 08:31:36;;;;;;;17.67;5.22;;;;;;;0.26;96.17;103018.44;5040214;28;20120;-46
2022/01/15 08:34:01;;;;;;;20.02;6.18;;;;;;;0.27;96.36;103023.59;5036802;28;20028;-48
2022/01/15 08:36:27;;;;;;;28.27;7.07;;;;;;;0.21;96.71;103032.00;5039450;28;20107;-46
2022/01/15 08:38:54;;;;;;;23.38;6.70;;;;;;;0.34;96.35;103015.19;5041164;28;20025;-48
2022/01/15 08:41:19;;;;;;;22.48;6.70;;;;;;;0.45;95.30;103028.34;5038458;28;20507;-47
2022/01/15 08:43:45;;;;;;;23.60;6.32;;;;;;;0.51;95.16;103030.44;5049113;28;20035;-47
2022/01/15 08:46:11;;;;;;;28.45;7.22;;;;;;;0.41;95.84;103037.47;5038223;28;20036;-46
2022/01/15 08:48:37;;;;;;;25.23;8.15;;;;;;;0.48;95.33;103026.28;5038642;28;20043;-47
2022/01/15 08:51:03;;;;;;;21.15;6.70;;;;;;;0.45;95.45;103033.59;5039281;28;20033;-47
2022/01/15 08:53:28;;;;;;;17.55;5.38;;;;;;;0.47;95.69;103034.31;5038800;28;20021;-46
2022/01/15 08:55:55;;;;;;;29.00;7.07;;;;;;;0.46;96.06;103035.28;5039501;28;20492;-47
2022/01/15 08:58:20;;;;;;;24.98;6.85;;;;;;;0.39;96.44;103034.13;5037762;28;20642;-47
2022/01/15 09:00:47;;;;;;;27.20;6.75;;;;;;;0.25;96.91;103043.16;5035278;28;20136;-47
2022/01/15 09:03:13;;;;;;;21.65;7.00;;;;;;;0.36;97.40;103043.13;5036137;28;21557;-47
2022/01/15 09:05:38;;;;;;;22.95;6.75;;;;;;;0.51;96.08;103041.00;5038571;28;20532;-47
2022/01/15 09:08:05;;;;;;;32.28;8.63;;;;;;;0.60;95.67;103040.25;5038748;28;20397;-46
2022/01/15 09:10:32;;;;;;;29.90;8.73;;;;;;;0.62;95.71;103046.25;5038124;28;20524;-47
2022/01/15 09:12:58;;;;;;;27.90;9.45;;;;;;;0.69;94.79;103043.94;5039527;28;20372;-48
2022/01/15 09:15:24;;;;;;;21.35;7.53;;;;;;;0.68;94.83;103043.09;5034896;28;20082;-47
2022/01/15 09:17:49;;;;;;;25.55;7.72;;;;;;;0.69;94.92;103047.41;5038608;28;20036;-47
2022/01/15 09:20:15;;;;;;;23.42;7.60;;;;;;;0.63;95.79;103044.44;5037663;28;20037;-46
2022/01/15 09:22:41;;;;;;;28.52;7.95;;;;;;;0.64;96.02;103046.94;5038679;28;20072;-46
2022/01/15 09:25:07;;;;;;;29.77;7.47;;;;;;;0.70;96.19;103049.06;5032667;28;20475;-47
2022/01/15 09:30:17;;;;;;;22.10;8.20;;;;;;;0.84;95.36;103051.41;5034234;28;20597;-46
2022/01/15 09:32:53;;;;;;;19.35;7.72;;;;;;;0.77;95.26;103054.69;5030862;28;20044;-46
2022/01/15 09:35:22;;;;;;;23.55;7.20;;;;;;;0.94;94.62;103055.94;5032487;28;20132;-47
2022/01/15 09:37:49;;;;;;;27.55;7.65;;;;;;;0.90;94.66;103050.09;5033238;28;20032;-47
2022/01/15 09:40:16;;;;;;;27.23;6.28;;;;;;;0.77;95.19;103057.34;5035964;28;20351;-47
2022/01/15 09:42:44;;;;;;;25.80;8.10;;;;;;;0.72;95.86;103047.19;5035879;28;20028;-48
2022/01/15 09:45:11;;;;;;;21.33;8.23;;;;;;;0.77;96.03;103052.06;5031801;28;20508;-47
2022/01/15 09:47:37;;;;;;;26.15;7.05;;;;;;;0.89;95.53;103054.50;5032350;28;20033;-47
2022/01/15 09:50:07;;;;;;;33.33;8.23;;;;;;;0.93;95.12;103041.06;5033800;28;20036;-47
2022/01/15 09:52:33;;;;;;;27.73;7.43;;;;;;;0.94;95.11;103046.22;5035889;28;20471;-46
2022/01/15 09:55:01;;;;;;;24.40;8.10;;;;;;;0.97;94.78;103047.75;5034128;28;20067;-46
2022/01/15 09:57:27;;;;;;;29.35;7.40;;;;;;;1.10;94.68;103040.50;5036157;28;20033;-48
2022/01/15 09:59:53;;;;;;;27.98;7.95;;;;;;;1.13;93.99;103042.88;5030519;28;20134;-47
2022/01/15 10:02:18;;;;;;;23.77;7.18;;;;;;;1.02;93.80;103029.72;5034186;28;20548;-47
2022/01/15 10:04:44;;;;;;;23.13;7.40;;;;;;;1.00;94.01;103032.50;5034082;28;20155;-46
2022/01/15 10:07:27;;;;;;;28.77;7.85;;;;;;;0.84;94.39;103032.94;5035984;28;20453;-46
2022/01/15 10:09:54;;;;;;;22.00;7.82;;;;;;;1.06;94.30;103025.84;5034475;28;20029;-46
2022/01/15 10:12:31;;;;;;;19.65;7.35;;;;;;;1.14;93.77;103015.50;5034936;28;20036;-46
2022/01/15 10:15:04;;;;;;;25.55;7.32;;;;;;;1.33;92.50;103014.75;5036991;28;20033;-46
2022/01/15 10:17:34;;;;;;;15.23;5.97;;;;;;;1.41;91.96;103012.28;5032437;28;20171;-46
2022/01/15 10:20:03;;;;;;;21.83;6.63;;;;;;;1.55;91.41;103013.72;5036733;28;20029;-46
2022/01/15 10:22:32;;;;;;;21.52;7.13;;;;;;;1.55;91.22;103013.72;5042006;28;20025;-48
2022/01/15 10:24:58;;;;;;;23.90;6.95;;;;;;;1.62;91.13;103015.72;5036518;28;20029;-46
2022/01/15 10:27:24;;;;;;;21.30;7.38;;;;;;;1.71;90.74;103006.13;5036147;28;20036;-47
2022/01/15 10:29:59;;;;;;;23.77;7.32;;;;;;;1.81;90.07;103009.66;5033427;28;20469;-46
2022/01/15 10:32:26;;;;;;;23.15;7.70;;;;;;;1.86;89.14;103007.44;5034576;28;20410;-48
2022/01/15 10:34:52;;;;;;;14.63;5.72;;;;;;;1.82;89.03;102998.13;5034611;28;20028;-48
2022/01/15 10:37:23;;;;;;;21.23;6.20;;;;;;;1.85;88.22;103005.75;5038971;28;20032;-47
2022/01/15 10:40:03;;;;;;;22.50;6.22;;;;;;;1.86;88.32;103002.16;5037031;28;20029;-46
2022/01/15 10:42:31;;;;;;;19.63;5.65;;;;;;;1.82;88.32;102998.13;5035617;28;20025;-46
2022/01/15 10:45:00;;;;;;;12.98;5.82;;;;;;;1.83;88.50;102991.84;5037895;28;20065;-46
2022/01/15 10:47:28;;;;;;;21.67;8.07;;;;;;;1.87;88.31;102995.88;5030654;28;20057;-46
2022/01/15 10:50:02;;;;;;;23.90;7.70;;;;;;;1.89;87.81;102993.94;5036378;28;20037;-47
2022/01/15 10:52:29;;;;;;;29.88;9.63;;;;;;;1.92;87.75;102992.81;5033812;28;20144;-47
2022/01/15 10:54:57;;;;;;;22.25;7.90;;;;;;;1.93;87.32;102992.69;5033020;28;20033;-48
2022/01/15 10:57:29;;;;;;;24.83;8.63;;;;;;;1.91;87.38;102994.63;5030064;28;20196;-47
2022/01/15 11:00:12;;;;;;;22.92;8.32;;;;;;;1.89;87.22;102999.22;5031599;28;20475;-47
2022/01/15 11:02:44;;;;;;;24.58;7.10;;;;;;;1.90;87.46;103015.94;5027286;28;20121;-46
2022/01/15 11:05:20;;;;;;;23.85;6.78;;;;;;;1.95;87.40;103011.06;5035846;28;20017;-46
2022/01/15 11:07:45;;;;;;;19.80;6.20;;;;;;;1.99;86.85;103007.19;5028660;28;20033;-47
2022/01/15 11:10:11;;;;;;;26.67;6.88;;;;;;;2.01;86.95;103007.88;5033522;28;20483;-47
2022/01/15 11:12:36;;;;;;;16.98;6.15;;;;;;;2.01;86.67;103011.38;5032213;28;20634;-47
2022/01/15 11:15:03;;;;;;;24.95;5.38;;;;;;;1.96;86.62;103008.28;5032124;28;21816;-46
2022/01/15 11:17:28;;;;;;;18.00;6.53;;;;;;;1.95;86.56;103011.88;5029860;28;20556;-46
2022/01/15 11:19:54;;;;;;;16.17;4.90;;;;;;;1.98;86.76;102995.78;5033959;28;20064;-46
2022/01/15 11:22:22;;;;;;;18.23;5.55;;;;;;;1.85;86.86;102995.19;5037367;28;20048;-46
2022/01/15 11:24:49;;;;;;;23.27;5.50;;;;;;;1.89;86.63;102986.00;5037042;28;20024;-46
2022/01/15 11:27:15;;;;;;;15.43;4.80;;;;;;;1.94;86.74;103002.28;5037185;28;20028;-46
2022/01/15 11:29:43;;;;;;;13.38;4.35;;;;;;;1.90;86.74;103003.53;5037499;28;20026;-46
2022/01/15 11:32:13;;;;;;;20.35;5.70;;;;;;;1.92;86.64;102996.31;5036377;28;20517;-46
2022/01/15 11:34:39;;;;;;;10.93;4.35;;;;;;;1.95;86.75;103001.31;5036358;28;20044;-46
2022/01/15 11:37:20;;;;;;;12.77;4.13;;;;;;;1.78;86.59;102994.88;5038236;28;20060;-46
2022/01/15 11:39:46;;;;;;;17.00;4.75;;;;;;;1.73;86.80;103004.19;5037433;28;20103;-46
2022/01/15 11:42:27;;;;;;;16.38;4.78;;;;;;;1.57;87.24;102995.94;5038270;28;20399;-46
2022/01/15 11:44:54;;;;;;;15.23;4.30;;;;;;;1.72;87.65;103006.00;5036941;28;20734;-46
2022/01/15 11:47:25;;;;;;;15.55;4.85;;;;;;;1.82;87.25;103000.75;5037264;28;20086;-47